Terminal Aerodrome Forecast
Issued by NWS

Home | Current Version | Previous Version | Text Only | Print | Product List | Glossary On
Versions: 1 2 3 4 5 6 7 8 9 10 11 12 13 14 15
000
FTUS46 KOTX 201727
TAFCOE
TAF
KCOE 201727Z 2018/2118 22009G15KT P6SM BKN013 OVC020
     FM202000 22011G18KT P6SM BKN030 OVC150
     FM202200 22010G18KT P6SM VCSH BKN040 OVC080
     FM210000 23010G16KT P6SM SCT050 BKN100
     FM210200 22010KT P6SM SCT050 BKN250
     FM210800 22008KT P6SM FEW010 BKN250
     FM211700 16005KT P6SM BKN050 OVC070=

USA.gov is the U.S. government's official web portal to all federal, state and local government web resources and services.